Garfield County Regional Airport Rifle US
ICAO: KRIL
IATA: RIL
Category: Medium
Scheduled Services: No

Elevation: 5548 ft
TransAlt. 18000 ft.

Airport Communications:
ASOS:135.275
DENVER CNTR:134.5
CTAF/UNICOM:122.8

KRIL Zoom In..

Runways:

(A) RW 08 length 7000 ft width 100 ft
---- / hdg 78

(B) RW 26 length 7000 ft width 100 ft
ILS 110.90 / hdg 258

Location; KRIL
Day. 07 / Time. 14.53 Zulu
* Altimeter: 30.17
* Temperature: 19° c. 66.2°f.
* Wind from: 000° Speed 00 kn.
Dewpoint: 00° c.
Visibility: 10 Statute Miles.
Clouds: Clear (automated report).

KRIL 071453Z AUTO 00000KT 10SM CLR 19/00 A3017 RMK AO2 SLP140 T01890000 51014

Going to: --> -->


Wind - Calm.

 
 
jpsmedia worldairports.se 2020   terms of use